createdAt,value
2019-01-21T00:02:27.395Z,30.00
2019-01-21T00:07:29.800Z,28.23
2019-01-21T00:12:32.857Z,27.83
2019-01-21T00:17:35.675Z,28.37
2019-01-21T00:22:38.207Z,29.57
2019-01-21T00:27:40.556Z,27.57
2019-01-21T00:32:43.678Z,27.63
2019-01-21T00:37:46.555Z,31.17
2019-01-21T00:42:49.132Z,29.20
2019-01-21T00:47:52.265Z,33.60
2019-01-21T00:52:55.364Z,34.27
2019-01-21T00:57:58.106Z,31.70
2019-01-21T01:03:00.722Z,35.03
2019-01-21T01:08:03.763Z,28.90
2019-01-21T01:13:06.282Z,29.57
2019-01-21T01:18:09.090Z,32.40
2019-01-21T01:23:11.346Z,32.17
2019-01-21T01:28:14.350Z,32.20
2019-01-21T01:33:17.228Z,32.83
2019-01-21T01:38:19.781Z,27.37
2019-01-21T01:43:22.328Z,34.63
2019-01-21T01:48:25.194Z,36.07
2019-01-21T01:53:27.805Z,35.50
2019-01-21T01:58:31.050Z,47.70
2019-01-21T02:03:34.028Z,33.20
2019-01-21T02:08:36.843Z,36.00
2019-01-21T02:13:39.659Z,31.60
2019-01-21T02:18:42.742Z,40.90
2019-01-21T02:23:49.789Z,37.47
2019-01-21T02:29:29.089Z,42.47
2019-01-21T02:35:22.450Z,36.80
2019-01-21T02:40:37.945Z,33.37
2019-01-21T02:46:14.530Z,32.83
2019-01-21T02:52:10.307Z,32.70
2019-01-21T02:58:06.150Z,30.87
2019-01-21T03:03:42.843Z,37.87
2019-01-21T03:09:45.442Z,36.97
2019-01-21T03:15:01.506Z,32.63
2019-01-21T03:20:20.633Z,35.90
2019-01-21T03:25:55.571Z,36.73
2019-01-21T03:32:18.574Z,36.97
2019-01-21T03:38:29.714Z,33.50
2019-01-21T03:44:28.153Z,35.83
2019-01-21T03:50:35.638Z,40.03
2019-01-21T03:55:38.482Z,38.27
2019-01-21T04:01:27.727Z,37.43
2019-01-21T04:07:17.318Z,42.00
2019-01-21T04:13:23.349Z,42.53
2019-01-21T04:19:23.931Z,43.60
2019-01-21T04:25:37.353Z,44.40
2019-01-21T04:31:36.458Z,48.57
2019-01-21T04:37:31.185Z,47.57
2019-01-21T04:43:24.558Z,48.10
2019-01-21T04:54:50.725Z,47.37
2019-01-21T05:01:20.154Z,44.57
2019-01-21T05:07:20.137Z,52.50
2019-01-21T05:13:44.125Z,53.63
2019-01-21T05:19:24.167Z,55.00
2019-01-21T05:25:27.426Z,51.70
2019-01-21T05:31:21.220Z,50.37
2019-01-21T05:37:11.201Z,60.97
2019-01-21T05:43:16.928Z,51.33
2019-01-21T05:49:26.290Z,48.90
2019-01-21T05:55:15.245Z,46.80
2019-01-21T06:01:21.295Z,47.40
2019-01-21T06:07:01.689Z,49.17
2019-01-21T06:12:39.413Z,52.63
2019-01-21T06:18:56.953Z,54.33
2019-01-21T06:24:41.568Z,46.60
2019-01-21T06:30:51.161Z,54.93
2019-01-21T06:36:32.411Z,49.30
2019-01-21T06:42:45.450Z,53.03
2019-01-21T06:48:37.009Z,54.53
2019-01-21T06:54:15.922Z,64.07
2019-01-21T07:00:10.847Z,56.90
2019-01-21T07:05:31.389Z,53.13
2019-01-21T07:11:28.019Z,54.57
2019-01-21T07:17:19.436Z,61.90
2019-01-21T07:23:01.492Z,51.80
2019-01-21T07:29:17.329Z,55.90
2019-01-21T07:35:09.013Z,54.37
2019-01-21T07:41:04.873Z,53.80
2019-01-21T07:47:05.572Z,53.10
2019-01-21T07:52:51.290Z,55.43
2019-01-21T07:58:43.622Z,57.53
2019-01-21T08:04:44.160Z,52.70
2019-01-21T08:10:39.464Z,50.63
2019-01-21T08:16:10.771Z,54.73
2019-01-21T08:22:02.707Z,56.33
2019-01-21T08:27:51.467Z,60.00
2019-01-21T08:33:35.831Z,54.03
2019-01-21T08:39:48.781Z,53.83
2019-01-21T08:45:39.367Z,54.43
2019-01-21T08:51:51.777Z,46.73
2019-01-21T08:57:29.434Z,47.37
2019-01-21T09:03:36.047Z,46.93
2019-01-21T09:10:03.326Z,50.57
2019-01-21T09:16:04.442Z,56.30
2019-01-21T09:21:43.350Z,50.57
2019-01-21T09:27:37.566Z,51.60
2019-01-21T09:32:58.696Z,52.13
2019-01-21T09:39:17.576Z,45.30
2019-01-21T09:44:45.080Z,46.33
2019-01-21T09:49:48.216Z,51.43
2019-01-21T09:54:51.679Z,52.93
2019-01-21T09:59:59.374Z,55.63
2019-01-21T10:05:09.647Z,50.00
2019-01-21T10:10:36.994Z,55.83
2019-01-21T10:16:15.270Z,52.63
2019-01-21T10:22:02.546Z,52.30
2019-01-21T10:27:31.783Z,62.90
2019-01-21T10:33:29.264Z,52.60
2019-01-21T10:39:22.584Z,53.57
2019-01-21T10:45:23.553Z,52.60
2019-01-21T10:50:49.592Z,54.87
2019-01-21T10:57:04.262Z,51.77
2019-01-21T11:03:07.191Z,59.93
2019-01-21T11:08:59.916Z,59.40
2019-01-21T11:14:53.207Z,53.60
2019-01-21T11:20:38.661Z,56.67
2019-01-21T11:26:59.604Z,70.77
2019-01-21T11:32:33.901Z,57.87
2019-01-21T11:38:01.783Z,56.77
2019-01-21T11:44:12.476Z,58.77
2019-01-21T11:50:34.532Z,61.73
2019-01-21T11:56:41.486Z,58.80
2019-01-21T12:02:33.899Z,61.50
2019-01-21T12:08:29.840Z,65.10
2019-01-21T12:14:31.443Z,56.23
2019-01-21T12:19:54.654Z,57.23
2019-01-21T12:25:35.380Z,61.43
2019-01-21T12:30:49.415Z,60.00
2019-01-21T12:36:07.161Z,57.03
2019-01-21T12:41:39.054Z,55.63
2019-01-21T12:47:12.949Z,54.30
2019-01-21T12:52:50.207Z,57.10
2019-01-21T12:58:48.573Z,51.10
2019-01-21T13:05:21.418Z,57.20
2019-01-21T13:11:03.125Z,59.40
2019-01-21T13:16:31.411Z,55.00
2019-01-21T13:22:15.851Z,53.27
2019-01-21T13:28:04.982Z,49.77
2019-01-21T13:33:24.347Z,50.93
2019-01-21T13:39:31.924Z,52.77
2019-01-21T13:45:15.812Z,54.40
2019-01-21T13:51:13.121Z,52.20
2019-01-21T13:56:51.329Z,49.80
2019-01-21T14:02:49.853Z,52.30
2019-01-21T14:08:26.984Z,51.47
2019-01-21T14:14:01.602Z,51.83
2019-01-21T14:19:50.516Z,53.83
2019-01-21T14:25:49.840Z,48.77
2019-01-21T14:31:20.462Z,56.97
2019-01-21T14:37:33.209Z,53.03
2019-01-21T14:43:36.868Z,56.33
2019-01-21T14:49:21.452Z,51.37
2019-01-21T14:55:24.290Z,53.93
2019-01-21T15:01:37.641Z,50.10
2019-01-21T15:07:05.140Z,49.60
2019-01-21T15:12:41.808Z,51.90
2019-01-21T15:18:58.197Z,46.87
2019-01-21T15:24:23.210Z,53.57
2019-01-21T15:29:45.528Z,50.40
2019-01-21T15:35:39.402Z,50.33
2019-01-21T15:41:34.703Z,51.00
2019-01-21T15:47:32.224Z,50.67
2019-01-21T15:53:15.953Z,47.07
2019-01-21T15:58:41.122Z,49.17
2019-01-21T16:04:34.547Z,50.27
2019-01-21T16:10:01.880Z,53.00
2019-01-21T16:15:50.787Z,46.27
2019-01-21T16:21:33.546Z,48.83
2019-01-21T16:26:48.621Z,52.13
2019-01-21T16:32:15.442Z,52.73
2019-01-21T16:37:48.888Z,60.37
2019-01-21T16:42:51.761Z,59.63
2019-01-21T16:47:54.890Z,58.53
2019-01-21T16:52:57.261Z,58.83
2019-01-21T16:58:00.126Z,58.10
2019-01-21T17:03:03.005Z,56.63
2019-01-21T17:08:05.930Z,60.97
2019-01-21T17:13:08.133Z,57.77
2019-01-21T17:18:10.561Z,59.43
2019-01-21T17:23:14.301Z,57.43
2019-01-21T17:28:16.818Z,65.10
2019-01-21T17:33:19.530Z,66.80
2019-01-21T17:38:22.384Z,64.57
2019-01-21T17:43:26.028Z,63.03
2019-01-21T17:48:28.610Z,61.90
2019-01-21T17:53:30.933Z,68.67
2019-01-21T17:58:35.199Z,64.80
2019-01-21T18:03:37.363Z,72.03
2019-01-21T18:08:39.635Z,64.70
2019-01-21T18:13:42.031Z,65.20
2019-01-21T18:18:44.305Z,68.90
2019-01-21T18:23:49.562Z,64.60
2019-01-21T18:28:54.306Z,61.70
2019-01-21T18:33:56.556Z,67.23
2019-01-21T18:38:59.564Z,63.47
2019-01-21T18:44:02.147Z,68.67
2019-01-21T18:49:05.153Z,74.70
2019-01-21T18:54:07.463Z,74.97
2019-01-21T18:59:10.027Z,73.83
2019-01-21T19:04:12.802Z,73.67
2019-01-21T19:09:15.675Z,76.70
2019-01-21T19:14:18.261Z,74.90
2019-01-21T19:19:20.791Z,73.10
2019-01-21T19:24:23.256Z,76.43
2019-01-21T19:29:29.458Z,81.67
2019-01-21T19:34:31.719Z,69.60
2019-01-21T19:39:34.407Z,74.37
2019-01-21T19:44:36.642Z,73.13
2019-01-21T19:49:39.145Z,78.27
2019-01-21T19:54:41.570Z,76.67
2019-01-21T19:59:43.963Z,75.80
2019-01-21T20:04:47.885Z,79.93
2019-01-21T20:09:51.437Z,79.47
2019-01-21T20:14:54.820Z,79.40
2019-01-21T20:19:59.049Z,75.73
2019-01-21T20:25:03.874Z,76.13
2019-01-21T20:30:09.489Z,73.90
2019-01-21T20:35:12.945Z,78.60
2019-01-21T20:40:20.978Z,74.80
2019-01-21T20:45:24.745Z,76.10
2019-01-21T20:50:28.970Z,80.30
2019-01-21T20:55:32.242Z,78.43
2019-01-21T21:00:35.792Z,80.57
2019-01-21T21:05:40.734Z,78.60
2019-01-21T21:10:44.422Z,80.37
2019-01-21T21:15:47.887Z,83.63
2019-01-21T21:20:51.639Z,77.73
2019-01-21T21:25:55.438Z,89.27
2019-01-21T21:30:58.632Z,79.60
2019-01-21T21:36:01.781Z,82.47
2019-01-21T21:41:04.989Z,83.60
2019-01-21T21:46:08.206Z,78.73
2019-01-21T21:51:11.598Z,75.73
2019-01-21T21:56:14.989Z,82.07
2019-01-21T22:01:23.843Z,83.03
2019-01-21T22:06:25.279Z,83.07
2019-01-21T22:11:28.774Z,79.97
2019-01-21T22:16:32.257Z,86.90
2019-01-21T22:21:36.426Z,82.80
2019-01-21T22:26:40.251Z,83.93
2019-01-21T22:31:42.533Z,81.93
2019-01-21T22:36:45.057Z,76.67
2019-01-21T22:41:47.829Z,81.03
2019-01-21T22:46:50.881Z,88.17
2019-01-21T22:51:55.455Z,80.27
2019-01-21T22:56:57.702Z,80.63
2019-01-21T23:02:00.261Z,74.07
2019-01-21T23:07:02.583Z,81.97
2019-01-21T23:12:05.500Z,85.13
2019-01-21T23:17:08.012Z,81.50
2019-01-21T23:22:10.588Z,80.57
2019-01-21T23:27:12.822Z,80.93
2019-01-21T23:32:15.251Z,76.43
2019-01-21T23:37:17.462Z,72.97
2019-01-21T23:42:20.772Z,79.10
2019-01-21T23:47:23.519Z,81.37
2019-01-21T23:52:26.006Z,82.57
2019-01-21T23:57:29.474Z,86.10
